Time;durP1;ratioP1;P1;durP2;ratioP2;P2;SDS_P1;SDS_P2;PMS_P1;PMS_P2;Temp;Humidity;BMP_temperature;BMP_pressure;BME280_temperature;BME280_humidity;BME280_pressure;Samples;Min_cycle;Max_cycle;Signal;HPM_P1;HPM_P2
2023/01/19 00:00:00;;;;;;;;;13.00;13.00;;;;;1.22;72.79;98370.13;5095742;27;45427;-79
2023/01/19 00:02:31;;;;;;;;;19.33;12.33;;;;;1.22;73.22;98378.78;5086943;27;46055;-78
2023/01/19 00:05:02;;;;;;;;;17.00;16.00;;;;;1.23;73.62;98374.44;5076742;27;45500;-79
2023/01/19 00:07:29;;;;;;;;;13.00;12.67;;;;;1.21;73.61;98369.28;5095286;27;45491;-78
2023/01/19 00:09:54;;;;;;;;;12.67;12.67;;;;;1.17;73.17;98364.19;5077291;27;45430;-78
2023/01/19 00:12:22;;;;;;;;;24.33;20.00;;;;;1.18;72.79;98369.31;5091424;27;46640;-77
2023/01/19 00:14:48;;;;;;;;;26.00;18.33;;;;;1.20;72.82;98382.28;5079046;27;45432;-77
2023/01/19 00:17:13;;;;;;;;;24.33;18.00;;;;;1.16;74.26;98386.69;5089179;27;45995;-77
2023/01/19 00:19:39;;;;;;;;;19.67;16.67;;;;;1.16;73.19;98391.00;5095013;27;45527;-77
2023/01/19 00:22:04;;;;;;;;;20.33;16.67;;;;;1.15;73.31;98373.72;5092818;27;45524;-77
2023/01/19 00:24:31;;;;;;;;;14.00;14.00;;;;;1.12;72.73;98369.44;5095942;27;45402;-77
2023/01/19 00:27:17;;;;;;;;;23.00;16.33;;;;;1.13;72.55;98365.94;5067629;27;45344;-77
2023/01/19 00:29:42;;;;;;;;;17.00;14.67;;;;;1.15;72.46;98373.72;5089068;27;45584;-77
2023/01/19 00:32:08;;;;;;;;;15.67;9.67;;;;;1.14;73.00;98364.22;5093023;27;45481;-77
2023/01/19 00:34:38;;;;;;;;;19.33;19.33;;;;;1.11;73.51;98357.31;5095286;27;45322;-77
2023/01/19 00:37:06;;;;;;;;;21.67;19.67;;;;;1.11;73.50;98353.88;5092538;27;45537;-77
2023/01/19 00:39:32;;;;;;;;;15.67;12.00;;;;;1.10;74.48;98383.31;5096057;27;45361;-77
2023/01/19 00:44:41;;;;;;;;;21.33;15.67;;;;;1.09;74.26;98379.00;5097741;27;45344;-77
2023/01/19 00:47:07;;;;;;;;;15.33;13.00;;;;;1.07;73.73;98354.78;5095765;27;45508;-77
2023/01/19 00:49:32;;;;;;;;;19.00;17.00;;;;;1.07;74.27;98358.25;5095260;27;45505;-78
2023/01/19 00:51:57;;;;;;;;;16.00;11.67;;;;;1.06;74.26;98364.31;5093779;27;46109;-77
2023/01/19 00:54:23;;;;;;;;;21.33;18.67;;;;;1.08;74.27;98377.28;5085071;27;45364;-77
2023/01/19 00:56:48;;;;;;;;;15.00;15.00;;;;;1.07;73.49;98381.59;5070803;27;45542;-77
2023/01/19 00:59:14;;;;;;;;;24.67;17.00;;;;;1.05;72.83;98366.06;5085459;27;45652;-77
2023/01/19 01:01:39;;;;;;;;;15.00;13.00;;;;;1.04;73.85;98372.13;5081256;27;45526;-77
2023/01/19 01:04:05;;;;;;;;;17.00;14.33;;;;;1.04;74.10;98358.28;5094348;27;45474;-77
2023/01/19 01:06:30;;;;;;;;;16.33;13.67;;;;;1.05;73.85;98370.38;5082198;27;45469;-78
2023/01/19 01:08:55;;;;;;;;;8.33;8.33;;;;;1.05;75.29;98360.84;5095574;27;45576;-77
2023/01/19 01:11:21;;;;;;;;;11.00;10.67;;;;;1.07;74.30;98363.44;5090501;27;46096;-77
2023/01/19 01:13:46;;;;;;;;;16.00;14.67;;;;;1.07;72.92;98375.56;5095227;27;45490;-77
2023/01/19 01:16:21;;;;;;;;;5.00;0.00;;;;;1.07;73.42;98367.75;5090430;27;45822;-77
2023/01/19 01:18:47;;;;;;;;;13.33;9.00;;;;;1.07;73.58;98376.41;5086239;27;45574;-78
2023/01/19 01:21:12;;;;;;;;;19.67;13.33;;;;;1.08;73.10;98404.09;5076462;27;46014;-77
2023/01/19 01:23:38;;;;;;;;;18.67;16.33;;;;;1.05;73.30;98379.03;5076430;27;45824;-77
2023/01/19 01:26:04;;;;;;;;;9.33;8.00;;;;;1.02;73.64;98379.06;5075764;27;45547;-77
2023/01/19 01:28:30;;;;;;;;;16.67;16.00;;;;;1.03;73.41;98382.53;5093848;27;45526;-77
2023/01/19 01:30:55;;;;;;;;;15.33;11.00;;;;;1.03;73.24;98385.97;5091097;27;45406;-77
2023/01/19 01:33:21;;;;;;;;;15.67;14.00;;;;;1.01;73.21;98387.72;5093978;27;45478;-77
2023/01/19 01:35:50;;;;;;;;;13.33;11.00;;;;;1.00;73.02;98380.84;5091603;27;45493;-77
2023/01/19 01:38:16;;;;;;;;;9.67;7.33;;;;;0.97;73.68;98383.47;5090571;27;45478;-77
2023/01/19 01:40:42;;;;;;;;;14.33;12.33;;;;;0.96;74.07;98386.09;5093326;27;46014;-77
2023/01/19 01:43:13;;;;;;;;;13.33;12.00;;;;;0.98;73.82;98389.53;5094189;27;45502;-77
2023/01/19 01:45:39;;;;;;;;;20.33;17.67;;;;;0.99;73.65;98393.84;5096496;27;45345;-75
2023/01/19 01:48:14;;;;;;;;;16.67;12.67;;;;;0.98;73.88;98386.94;5098680;27;45328;-76
2023/01/19 01:53:33;;;;;;;;;18.67;17.67;;;;;0.98;73.92;98389.53;5089995;27;45315;-76
2023/01/19 01:56:03;;;;;;;;;19.33;16.33;;;;;0.97;74.46;98383.47;5094950;27;45499;-76
2023/01/19 01:58:31;;;;;;;;;18.67;15.33;;;;;0.99;72.83;98392.09;5090373;27;45504;-78
2023/01/19 02:03:40;;;;;;;;;12.00;11.33;;;;;0.97;71.50;98391.25;5097980;27;45379;-77
2023/01/19 02:06:06;;;;;;;;;16.67;14.33;;;;;0.98;71.93;98397.31;5088859;27;45504;-76
2023/01/19 02:14:15;;;;;;;;;12.67;10.67;;;;;1.01;70.45;98402.44;5093186;27;45550;-75
2023/01/19 02:16:41;;;;;;;;;12.00;12.00;;;;;1.03;72.12;98408.47;5076528;27;45634;-77
2023/01/19 02:19:12;;;;;;;;;11.00;9.00;;;;;1.05;71.50;98401.53;5098091;27;45423;-77
2023/01/19 02:21:45;;;;;;;;;13.00;9.67;;;;;1.08;71.27;98408.41;5092367;27;46222;-77
2023/01/19 02:24:11;;;;;;;;;12.33;9.33;;;;;1.08;70.62;98401.50;5096728;27;45353;-78
2023/01/19 02:26:43;;;;;;;;;11.33;9.67;;;;;1.11;70.80;98398.00;5074696;27;45466;-78
2023/01/19 02:29:11;;;;;;;;;11.67;9.00;;;;;1.09;70.32;98403.22;5097485;27;45556;-77
2023/01/19 02:31:38;;;;;;;;;12.33;10.33;;;;;1.08;70.70;98401.50;5094774;27;46579;-77
2023/01/19 02:34:07;;;;;;;;;16.33;9.33;;;;;1.11;70.10;98408.38;5112435;27;45422;-77
2023/01/19 02:36:41;;;;;;;;;12.33;9.67;;;;;1.14;69.88;98398.81;5077998;27;45459;-77
2023/01/19 02:39:09;;;;;;;;;5.33;4.33;;;;;1.15;71.30;98412.66;5084914;27;45533;-77
2023/01/19 02:41:43;;;;;;;;;5.67;5.67;;;;;1.18;69.34;98415.19;5076159;27;46784;-78
2023/01/19 02:44:11;;;;;;;;;1.00;0.00;;;;;1.21;69.38;98405.63;5080786;27;45635;-78
2023/01/19 02:46:37;;;;;;;;;15.00;11.33;;;;;1.25;71.58;98409.03;5079082;27;45507;-77
2023/01/19 02:49:03;;;;;;;;;12.00;9.67;;;;;1.27;71.95;98408.13;5081447;27;45516;-77
2023/01/19 02:51:29;;;;;;;;;9.67;7.33;;;;;1.27;71.65;98407.28;5091992;27;45502;-78
2023/01/19 02:54:06;;;;;;;;;9.67;8.67;;;;;1.27;72.59;98413.34;5096246;27;45416;-77
2023/01/19 02:56:56;;;;;;;;;15.00;12.67;;;;;1.28;73.01;98406.41;5094287;27;45583;-77
2023/01/19 03:00:01;;;;;;;;;12.00;11.67;;;;;1.31;74.09;98411.56;5091472;27;45454;-77
2023/01/19 03:02:29;;;;;;;;;12.00;9.00;;;;;1.32;72.68;98419.31;5088158;27;47796;-77
2023/01/19 03:05:17;;;;;;;;;6.67;6.00;;;;;1.34;72.40;98414.13;5093410;27;45407;-78
2023/01/19 03:08:07;;;;;;;;;12.33;10.00;;;;;1.38;73.41;98421.81;5093556;27;45431;-78
2023/01/19 03:10:50;;;;;;;;;9.67;8.33;;;;;1.39;71.57;98415.75;5095918;27;45382;-76
2023/01/19 03:13:44;;;;;;;;;13.67;10.00;;;;;1.38;73.89;98410.56;5075925;27;47993;-76
2023/01/19 03:16:39;;;;;;;;;8.00;8.00;;;;;1.37;71.39;98406.25;5092996;27;45351;-76
2023/01/19 03:19:08;;;;;;;;;13.33;9.00;;;;;1.38;71.94;98407.97;5092269;27;45550;-78
2023/01/19 03:21:36;;;;;;;;;11.33;10.33;;;;;1.39;72.09;98407.94;5106511;27;45451;-76
2023/01/19 03:24:05;;;;;;;;;8.67;8.00;;;;;1.38;72.76;98408.81;5086584;27;47998;-76
2023/01/19 03:26:37;;;;;;;;;10.67;9.00;;;;;1.38;73.44;98405.38;5095351;27;45435;-76
2023/01/19 03:29:06;;;;;;;;;12.67;12.33;;;;;1.37;73.75;98409.72;5082174;27;45601;-76
2023/01/19 03:31:32;;;;;;;;;12.67;10.00;;;;;1.36;74.48;98414.91;5092823;27;45899;-75
2023/01/19 03:34:04;;;;;;;;;13.00;12.33;;;;;1.34;74.55;98417.53;5096138;27;45693;-76
2023/01/19 03:36:56;;;;;;;;;11.00;10.00;;;;;1.33;74.97;98423.63;5088199;27;45499;-75
2023/01/19 03:39:23;;;;;;;;;12.00;9.67;;;;;1.29;74.73;98429.75;5084095;27;45624;-76
2023/01/19 03:41:55;;;;;;;;;14.33;12.00;;;;;1.23;73.91;98432.41;5093699;27;45686;-77
2023/01/19 03:44:22;;;;;;;;;14.67;12.67;;;;;1.19;74.12;98433.34;5091530;27;48718;-77
2023/01/19 03:46:49;;;;;;;;;16.33;16.00;;;;;1.14;73.72;98434.31;5074393;27;45595;-76
2023/01/19 03:49:15;;;;;;;;;16.00;13.00;;;;;1.08;73.99;98429.19;5086688;27;45556;-76
2023/01/19 03:51:41;;;;;;;;;16.33;15.67;;;;;1.05;74.55;98435.25;5082151;27;45536;-76
2023/01/19 03:54:08;;;;;;;;;20.67;17.00;;;;;1.02;74.93;98438.75;5096316;27;46181;-76
2023/01/19 03:56:33;;;;;;;;;19.33;16.33;;;;;0.97;74.74;98435.38;5118011;27;45380;-76
2023/01/19 03:58:59;;;;;;;;;17.33;15.00;;;;;0.91;74.68;98442.38;5095797;27;45443;-76
2023/01/19 04:01:25;;;;;;;;;17.67;15.67;;;;;0.84;74.85;98444.16;5091982;27;45400;-76
2023/01/19 04:03:51;;;;;;;;;24.33;16.67;;;;;0.78;75.31;98448.59;5095395;27;46098;-77
2023/01/19 04:06:18;;;;;;;;;18.67;17.33;;;;;0.70;75.68;98449.53;5094766;27;45456;-77
2023/01/19 04:08:44;;;;;;;;;16.00;13.67;;;;;0.65;75.79;98453.06;5075608;27;45490;-76
2023/01/19 04:11:11;;;;;;;;;18.67;16.67;;;;;0.57;76.12;98453.16;5093939;27;45446;-76
2023/01/19 04:13:36;;;;;;;;;19.00;16.67;;;;;0.52;76.42;98457.50;5081286;27;47608;-76
2023/01/19 04:16:03;;;;;;;;;16.33;16.33;;;;;0.46;76.68;98457.59;5093189;27;45312;-78
2023/01/19 04:18:30;;;;;;;;;14.67;9.33;;;;;0.40;76.71;98460.25;5072584;27;45505;-78
2023/01/19 04:21:00;;;;;;;;;20.67;14.33;;;;;0.33;76.90;98461.19;5094205;27;45545;-78
2023/01/19 04:23:26;;;;;;;;;19.00;16.67;;;;;0.29;77.05;98462.97;5092402;27;46521;-78
2023/01/19 04:25:59;;;;;;;;;18.33;16.00;;;;;0.28;77.18;98460.38;5081973;27;45501;-78
2023/01/19 04:28:25;;;;;;;;;16.67;13.67;;;;;0.26;77.49;98462.13;5074420;27;45546;-76
2023/01/19 04:30:53;;;;;;;;;15.67;13.00;;;;;0.23;76.84;98454.38;5076859;27;45353;-76
2023/01/19 04:33:20;;;;;;;;;17.00;13.33;;;;;0.21;77.32;98461.28;5095487;27;45558;-78
2023/01/19 04:35:46;;;;;;;;;16.33;14.67;;;;;0.20;76.05;98460.44;5089932;27;45516;-75
2023/01/19 04:38:12;;;;;;;;;12.67;11.00;;;;;0.16;76.69;98461.38;5089255;27;45562;-77
2023/01/19 04:40:37;;;;;;;;;15.67;13.00;;;;;0.13;77.11;98456.19;5113066;27;45479;-77
2023/01/19 04:43:03;;;;;;;;;12.00;9.00;;;;;0.06;77.18;98464.03;5093829;27;45491;-77
2023/01/19 04:45:28;;;;;;;;;9.00;8.33;;;;;0.00;77.20;98470.16;5091329;27;45472;-77
2023/01/19 04:47:54;;;;;;;;;9.33;9.00;;;;;-0.05;76.34;98469.31;5090892;27;45483;-77
2023/01/19 04:50:19;;;;;;;;;7.00;5.33;;;;;-0.10;76.27;98474.53;5095419;27;45458;-77
2023/01/19 04:52:45;;;;;;;;;9.67;9.67;;;;;-0.14;76.07;98474.56;5095023;27;45525;-77
2023/01/19 04:55:11;;;;;;;;;14.67;9.00;;;;;-0.21;76.37;98478.09;5097914;27;45480;-77
2023/01/19 04:57:37;;;;;;;;;11.00;9.33;;;;;-0.26;77.15;98478.09;5113585;27;45436;-77
2023/01/19 05:00:07;;;;;;;;;13.00;11.00;;;;;-0.27;77.01;98476.38;5095291;27;45577;-77
2023/01/19 05:02:33;;;;;;;;;11.67;11.00;;;;;-0.26;76.94;98485.00;5077679;27;47000;-77
2023/01/19 05:04:58;;;;;;;;;11.33;11.33;;;;;-0.23;77.82;98490.19;5094700;27;45519;-77
2023/01/19 05:07:24;;;;;;;;;12.67;8.67;;;;;-0.22;77.17;98486.72;5095070;27;45553;-77
2023/01/19 05:09:49;;;;;;;;;12.00;11.67;;;;;-0.23;77.02;98483.28;5097137;27;45529;-77
2023/01/19 05:12:15;;;;;;;;;15.00;13.00;;;;;-0.23;77.02;98491.03;5093092;27;46687;-77
2023/01/19 05:14:40;;;;;;;;;10.67;10.33;;;;;-0.20;76.74;98492.75;5095099;27;45435;-78
2023/01/19 05:17:06;;;;;;;;;12.00;11.33;;;;;-0.21;76.51;98497.06;5092771;27;45511;-77
2023/01/19 05:19:31;;;;;;;;;15.67;11.00;;;;;-0.22;76.14;98490.19;5093327;27;45392;-77
2023/01/19 05:21:57;;;;;;;;;15.33;12.67;;;;;-0.19;77.21;98490.16;5093923;27;45574;-77
2023/01/19 05:24:22;;;;;;;;;13.00;13.00;;;;;-0.17;76.68;98490.16;5082783;27;45436;-78
2023/01/19 05:26:47;;;;;;;;;15.67;12.67;;;;;-0.18;77.22;98491.00;5104829;27;45554;-76
2023/01/19 05:29:13;;;;;;;;;14.33;12.00;;;;;-0.15;76.85;98491.81;5094029;27;45517;-76
2023/01/19 05:31:38;;;;;;;;;14.67;12.00;;;;;-0.15;77.15;98494.41;5107856;27;48158;-76
2023/01/19 05:34:05;;;;;;;;;12.00;11.00;;;;;-0.13;76.26;98491.81;5093981;27;45349;-76
2023/01/19 05:36:31;;;;;;;;;17.67;10.67;;;;;-0.15;77.20;98486.66;5093413;27;45403;-76
2023/01/19 05:38:56;;;;;;;;;7.67;7.67;;;;;-0.15;76.84;98497.00;5077660;27;45475;-77
2023/01/19 05:41:22;;;;;;;;;12.00;11.00;;;;;-0.17;76.79;98497.91;5075369;27;46071;-76
2023/01/19 05:43:47;;;;;;;;;14.00;13.67;;;;;-0.19;77.58;98494.47;5096029;27;45858;-76
2023/01/19 05:46:13;;;;;;;;;8.33;5.00;;;;;-0.19;76.63;98491.88;5090448;27;45557;-76
2023/01/19 05:48:38;;;;;;;;;7.00;5.00;;;;;-0.19;76.31;98494.47;5092820;27;45545;-77
2023/01/19 05:51:04;;;;;;;;;11.00;11.00;;;;;-0.19;76.08;98491.88;5092479;27;46118;-76
2023/01/19 05:53:30;;;;;;;;;16.33;15.00;;;;;-0.16;76.60;98497.00;5092351;27;45411;-77
2023/01/19 05:56:04;;;;;;;;;12.00;11.00;;;;;-0.11;77.05;98497.84;5091277;27;45558;-76
2023/01/19 05:58:30;;;;;;;;;10.33;10.33;;;;;-0.07;76.48;98499.56;5071820;27;45475;-77
2023/01/19 06:00:56;;;;;;;;;11.67;11.00;;;;;-0.06;77.23;98502.13;5091699;27;45447;-77
2023/01/19 06:03:22;;;;;;;;;12.00;12.00;;;;;-0.03;77.53;98504.72;5092861;27;45400;-76
2023/01/19 06:05:47;;;;;;;;;14.00;11.00;;;;;-0.03;75.89;98509.03;5092821;27;45464;-76
2023/01/19 06:08:13;;;;;;;;;13.33;11.33;;;;;-0.01;76.36;98517.66;5093099;27;45548;-77
2023/01/19 06:10:38;;;;;;;;;14.00;11.00;;;;;-0.02;75.77;98519.38;5093182;27;45339;-77
2023/01/19 06:13:04;;;;;;;;;9.67;8.00;;;;;-0.02;75.28;98521.13;5086031;27;45503;-77
2023/01/19 06:15:29;;;;;;;;;11.67;11.00;;;;;0.00;75.99;98521.97;5094141;27;45467;-76
2023/01/19 06:17:55;;;;;;;;;12.00;11.00;;;;;0.03;75.58;98521.91;5091470;27;45608;-76
2023/01/19 06:20:20;;;;;;;;;11.33;8.33;;;;;0.05;76.42;98529.69;5093669;27;46211;-77
2023/01/19 06:22:46;;;;;;;;;13.67;11.33;;;;;0.05;74.88;98522.78;5078429;27;45368;-77
2023/01/19 06:25:11;;;;;;;;;16.33;12.33;;;;;0.07;75.71;98530.53;5080198;27;45534;-77
2023/01/19 06:27:38;;;;;;;;;9.67;9.67;;;;;0.09;75.42;98536.56;5090887;27;45705;-77
2023/01/19 06:30:05;;;;;;;;;14.00;8.00;;;;;0.13;74.95;98540.88;5079425;27;46780;-77
2023/01/19 06:32:31;;;;;;;;;8.00;8.00;;;;;0.12;75.68;98537.41;5092443;27;45404;-77
2023/01/19 06:34:56;;;;;;;;;19.33;12.33;;;;;0.11;76.11;98540.88;5096707;27;45365;-77
2023/01/19 06:37:22;;;;;;;;;15.00;14.33;;;;;0.12;76.23;98544.31;5093468;27;45398;-77
2023/01/19 06:39:47;;;;;;;;;14.33;13.33;;;;;0.10;75.71;98548.66;5096109;27;46397;-77
2023/01/19 06:42:13;;;;;;;;;14.00;13.00;;;;;0.09;75.43;98545.19;5094417;27;45387;-77
2023/01/19 06:44:46;;;;;;;;;17.67;12.00;;;;;0.09;75.84;98560.75;5096304;27;45486;-77
2023/01/19 06:47:11;;;;;;;;;12.00;12.00;;;;;0.08;76.15;98561.63;5095428;27;45491;-78
2023/01/19 06:49:36;;;;;;;;;10.33;8.00;;;;;0.04;76.19;98556.47;5078471;27;45411;-77
2023/01/19 06:52:02;;;;;;;;;12.67;10.33;;;;;0.02;76.03;98563.38;5092686;27;45583;-77
2023/01/19 06:54:27;;;;;;;;;7.67;5.33;;;;;-0.02;75.86;98560.84;5095413;27;45450;-77
2023/01/19 06:56:53;;;;;;;;;8.67;5.00;;;;;-0.02;75.35;98563.44;5093106;27;45399;-77
2023/01/19 06:59:18;;;;;;;;;0.67;0.67;;;;;-0.03;75.54;98564.31;5095464;27;46657;-77
2023/01/19 07:01:43;;;;;;;;;13.00;13.00;;;;;-0.02;75.59;98560.84;5083502;27;45502;-77
2023/01/19 07:04:12;;;;;;;;;13.00;12.00;;;;;0.00;75.62;98564.25;5094683;27;45926;-76
2023/01/19 07:06:38;;;;;;;;;12.00;11.33;;;;;-0.02;75.66;98560.84;5093386;27;45564;-77
2023/01/19 07:09:06;;;;;;;;;16.67;14.00;;;;;-0.04;75.68;98559.97;5094661;27;46004;-76
2023/01/19 07:11:32;;;;;;;;;11.33;8.67;;;;;-0.04;75.30;98566.91;5103124;27;46102;-76
2023/01/19 07:13:58;;;;;;;;;13.33;12.33;;;;;-0.04;75.74;98566.91;5094707;27;45505;-76
2023/01/19 07:16:24;;;;;;;;;10.00;9.00;;;;;-0.06;75.76;98574.69;5092403;27;45435;-76
2023/01/19 07:18:49;;;;;;;;;14.00;11.67;;;;;-0.10;75.95;98569.50;5079763;27;48589;-76
2023/01/19 07:21:15;;;;;;;;;14.00;12.00;;;;;-0.11;76.76;98578.16;5091353;27;45369;-76
2023/01/19 07:23:42;;;;;;;;;11.33;9.00;;;;;-0.12;76.39;98579.88;5095625;27;45654;-76
2023/01/19 07:26:09;;;;;;;;;13.67;9.33;;;;;-0.14;75.81;98584.22;5092588;27;45896;-75
2023/01/19 07:28:35;;;;;;;;;14.00;12.00;;;;;-0.13;76.61;98587.66;5091690;27;45559;-77
2023/01/19 07:31:01;;;;;;;;;14.33;11.00;;;;;-0.12;76.84;98595.44;5094035;27;45458;-77
2023/01/19 07:33:28;;;;;;;;;13.67;11.67;;;;;-0.16;77.06;98590.25;5089687;27;45396;-77
2023/01/19 07:35:53;;;;;;;;;18.33;9.67;;;;;-0.19;77.40;98590.31;5092387;27;45430;-77
2023/01/19 07:38:19;;;;;;;;;10.00;10.00;;;;;-0.23;77.23;98594.63;5089874;27;45913;-77
2023/01/19 07:40:45;;;;;;;;;14.33;11.00;;;;;-0.22;77.66;98600.69;5090051;27;45586;-77
2023/01/19 07:43:12;;;;;;;;;12.00;10.33;;;;;-0.22;77.58;98595.50;5093947;27;45436;-77
2023/01/19 07:45:37;;;;;;;;;20.33;14.67;;;;;-0.24;76.96;98592.91;5095507;27;45483;-77
2023/01/19 07:48:03;;;;;;;;;10.67;8.00;;;;;-0.20;76.50;98597.22;5093633;27;46583;-77
2023/01/19 07:50:29;;;;;;;;;13.33;11.67;;;;;-0.17;76.52;98599.75;5095552;27;45433;-76
2023/01/19 07:52:55;;;;;;;;;8.00;8.00;;;;;-0.14;76.40;98604.06;5074372;27;45461;-75
2023/01/19 07:55:22;;;;;;;;;9.67;9.33;;;;;-0.10;76.51;98605.78;5095999;27;45611;-76
2023/01/19 07:57:52;;;;;;;;;11.00;11.00;;;;;-0.08;76.65;98606.63;5088110;27;46060;-77
2023/01/19 08:00:20;;;;;;;;;11.33;11.33;;;;;-0.02;76.27;98611.78;5095127;27;45379;-77
2023/01/19 08:02:48;;;;;;;;;8.00;7.67;;;;;0.03;76.37;98616.94;5093778;27;46010;-77
2023/01/19 08:05:18;;;;;;;;;8.67;8.33;;;;;0.08;76.77;98617.75;5095058;27;45309;-77
2023/01/19 08:07:45;;;;;;;;;15.00;9.00;;;;;0.14;76.31;98617.75;5092900;27;45576;-78
2023/01/19 08:10:12;;;;;;;;;14.67;14.00;;;;;0.20;76.03;98615.94;5094872;27;45533;-77
2023/01/19 08:12:38;;;;;;;;;11.33;10.33;;;;;0.25;75.77;98624.56;5093645;27;45500;-77
2023/01/19 08:15:04;;;;;;;;;13.67;7.00;;;;;0.29;75.51;98622.81;5094487;27;45608;-78
2023/01/19 08:17:29;;;;;;;;;13.33;13.00;;;;;0.37;75.25;98623.59;5090684;27;45679;-78
2023/01/19 08:19:55;;;;;;;;;15.33;15.00;;;;;0.41;74.69;98627.91;5094110;27;45284;-76
2023/01/19 08:22:22;;;;;;;;;15.00;12.00;;;;;0.48;75.16;98637.38;5093883;27;45450;-77
2023/01/19 08:24:48;;;;;;;;;13.67;12.67;;;;;0.52;74.37;98643.38;5095066;27;45392;-77
2023/01/19 08:27:13;;;;;;;;;17.67;13.00;;;;;0.53;74.39;98647.69;5092252;27;45457;-77
2023/01/19 08:29:39;;;;;;;;;13.33;9.00;;;;;0.51;73.99;98639.91;5079895;27;45501;-77
2023/01/19 08:32:05;;;;;;;;;13.33;11.67;;;;;0.59;74.63;98642.47;5047258;28;45498;-77
2023/01/19 08:34:31;;;;;;;;;16.00;15.00;;;;;0.62;74.77;98635.50;5054230;28;45424;-78
2023/01/19 08:36:58;;;;;;;;;13.33;13.33;;;;;0.69;75.15;98638.91;5046043;28;47344;-76
2023/01/19 08:39:23;;;;;;;;;17.33;15.33;;;;;0.76;75.87;98642.31;5060085;28;45246;-77
2023/01/19 08:41:49;;;;;;;;;21.33;17.33;;;;;0.83;76.06;98638.81;5051970;28;45451;-77
2023/01/19 08:44:15;;;;;;;;;23.00;19.00;;;;;0.93;75.75;98641.28;5052201;28;45408;-76
2023/01/19 08:46:41;;;;;;;;;21.67;15.00;;;;;1.02;76.10;98635.13;5051190;28;46545;-77
2023/01/19 08:49:06;;;;;;;;;26.33;22.00;;;;;1.15;76.34;98634.16;5050759;28;45337;-78
2023/01/19 08:51:32;;;;;;;;;15.33;15.33;;;;;1.28;76.24;98635.75;5050047;28;45628;-77
2023/01/19 08:53:58;;;;;;;;;19.00;18.67;;;;;1.39;76.14;98638.22;5052569;28;45416;-76
2023/01/19 08:56:23;;;;;;;;;27.33;20.67;;;;;1.49;75.76;98633.78;5065391;28;46056;-77
2023/01/19 08:58:49;;;;;;;;;24.00;20.00;;;;;1.57;75.35;98638.00;5051962;28;45519;-77
2023/01/19 09:01:15;;;;;;;;;25.67;17.67;;;;;1.66;75.12;98640.50;5051690;28;45438;-78
2023/01/19 09:03:42;;;;;;;;;19.00;17.00;;;;;1.74;75.18;98645.59;5052867;28;45692;-77
2023/01/19 09:06:13;;;;;;;;;20.67;17.33;;;;;1.83;74.98;98642.03;5084326;27;46746;-77
2023/01/19 09:08:39;;;;;;;;;22.00;19.67;;;;;1.87;74.83;98646.28;5052617;28;45471;-78
2023/01/19 09:11:10;;;;;;;;;21.67;20.67;;;;;1.89;74.83;98639.31;5051255;28;45403;-77
2023/01/19 09:13:36;;;;;;;;;23.00;16.67;;;;;1.89;75.06;98640.19;5049730;28;45519;-77
2023/01/19 09:16:08;;;;;;;;;16.33;13.67;;;;;1.91;74.38;98630.63;5052580;28;45769;-76
2023/01/19 09:18:34;;;;;;;;;17.67;15.33;;;;;1.92;74.13;98631.50;5053620;28;45522;-77
2023/01/19 09:21:01;;;;;;;;;18.67;14.67;;;;;1.94;73.88;98634.94;5053239;28;45370;-80
2023/01/19 09:23:27;;;;;;;;;16.33;14.33;;;;;1.97;73.93;98640.09;5053101;28;45533;-79
2023/01/19 09:25:58;;;;;;;;;21.67;17.67;;;;;1.99;73.27;98641.81;5050472;28;45447;-79
2023/01/19 09:28:24;;;;;;;;;22.00;16.00;;;;;1.98;73.04;98639.22;5053334;28;45392;-78
2023/01/19 09:30:50;;;;;;;;;18.00;14.67;;;;;2.03;73.08;98638.25;5068025;27;45578;-80
2023/01/19 09:33:18;;;;;;;;;23.67;22.67;;;;;2.11;73.13;98638.16;5047728;28;45508;-80
2023/01/19 09:35:44;;;;;;;;;21.33;17.67;;;;;2.17;73.13;98642.44;5059282;28;48592;-79
2023/01/19 09:38:11;;;;;;;;;25.67;19.33;;;;;2.21;72.63;98642.34;5058266;28;45424;-78
2023/01/19 09:40:40;;;;;;;;;19.33;18.33;;;;;2.29;72.41;98643.09;5051919;28;45507;-79
2023/01/19 09:43:15;;;;;;;;;16.33;16.33;;;;;2.35;72.01;98647.31;5053136;28;45537;-78
2023/01/19 09:45:57;;;;;;;;;23.00;19.33;;;;;2.45;72.78;98646.31;5073936;27;47810;-78
2023/01/19 09:48:52;;;;;;;;;21.67;16.00;;;;;2.58;72.38;98654.78;5050175;28;45476;-78
2023/01/19 09:51:22;;;;;;;;;18.00;13.67;;;;;2.68;71.93;98646.81;5046457;28;45494;-80
2023/01/19 09:54:15;;;;;;;;;20.00;17.67;;;;;2.79;71.94;98659.66;5053078;28;45598;-78
2023/01/19 09:56:43;;;;;;;;;25.33;19.67;;;;;2.92;72.10;98663.78;5052221;28;45657;-79
2023/01/19 09:59:30;;;;;;;;;19.00;14.00;;;;;3.02;71.37;98673.13;5060931;28;45459;-81
2023/01/19 10:02:17;;;;;;;;;13.00;13.00;;;;;3.13;71.39;98667.75;5047299;28;45554;-81
2023/01/19 10:05:00;;;;;;;;;24.67;20.67;;;;;3.20;71.74;98674.56;5053723;28;45406;-80
2023/01/19 10:07:28;;;;;;;;;24.00;20.00;;;;;3.23;71.63;98676.25;5056901;28;45483;-78
2023/01/19 10:10:04;;;;;;;;;24.33;22.67;;;;;3.27;71.19;98675.31;5056727;28;45263;-79
2023/01/19 10:12:42;;;;;;;;;16.33;15.00;;;;;3.36;70.57;98673.41;5065055;28;45691;-79
2023/01/19 10:15:20;;;;;;;;;22.00;17.67;;;;;3.44;70.92;98676.72;5057111;28;45435;-80
2023/01/19 10:17:48;;;;;;;;;26.67;20.67;;;;;3.54;70.47;98679.16;5052457;28;46187;-80
2023/01/19 10:20:22;;;;;;;;;24.00;20.33;;;;;3.64;70.12;98678.97;5056347;28;45372;-80
2023/01/19 10:22:49;;;;;;;;;20.00;18.33;;;;;3.75;69.76;98679.59;5050214;28;45417;-78
2023/01/19 10:25:22;;;;;;;;;23.33;19.00;;;;;3.84;69.35;98675.97;5071429;27;45475;-79
2023/01/19 10:27:48;;;;;;;;;17.67;17.67;;;;;3.88;68.65;98668.91;5054001;28;47210;-81
2023/01/19 10:30:22;;;;;;;;;23.67;20.00;;;;;3.94;69.19;98667.06;5075446;27;45401;-80
2023/01/19 10:32:48;;;;;;;;;23.33;19.67;;;;;3.92;67.62;98662.75;5094363;27;45392;-80
2023/01/19 10:35:25;;;;;;;;;21.67;21.00;;;;;3.90;68.77;98672.34;5097660;27;45373;-80
2023/01/19 10:37:55;;;;;;;;;20.67;19.00;;;;;3.94;66.05;98666.19;5095933;27;45476;-78
2023/01/19 10:40:30;;;;;;;;;17.67;16.67;;;;;3.78;66.09;98669.13;5095960;27;45555;-78
2023/01/19 10:42:56;;;;;;;;;24.67;19.33;;;;;3.60;66.08;98666.00;5091755;27;45471;-78
2023/01/19 10:45:28;;;;;;;;;17.00;17.00;;;;;3.50;66.65;98671.41;5096304;27;45439;-79
2023/01/19 10:47:58;;;;;;;;;23.00;23.00;;;;;3.40;65.73;98669.84;5093153;27;45544;-80
2023/01/19 10:50:26;;;;;;;;;21.00;18.67;;;;;3.31;66.53;98667.44;5096376;27;45424;-79
2023/01/19 10:52:57;;;;;;;;;24.00;22.67;;;;;3.26;66.63;98669.25;5097217;27;45396;-79
2023/01/19 10:55:40;;;;;;;;;23.00;17.33;;;;;3.28;67.63;98664.03;5077600;27;45620;-78
2023/01/19 10:58:28;;;;;;;;;20.00;19.00;;;;;3.29;66.80;98656.19;5097874;27;45583;-78
2023/01/19 11:00:54;;;;;;;;;26.00;23.67;;;;;3.32;68.08;98652.66;5104592;27;45456;-78
2023/01/19 11:03:24;;;;;;;;;18.33;16.67;;;;;3.40;67.30;98662.03;5095509;27;45383;-78
2023/01/19 11:05:50;;;;;;;;;19.33;15.67;;;;;3.44;66.93;98655.03;5078560;27;45520;-79
2023/01/19 11:12:04;;;;;;;;;22.00;18.33;;;;;3.58;66.98;98655.63;5022889;27;45323;-78
2023/01/19 11:14:39;;;;;;;;;22.00;19.00;;;;;3.61;66.53;98652.09;5095332;27;45531;-80
2023/01/19 11:17:24;;;;;;;;;23.00;16.33;;;;;3.65;67.71;98653.75;5105603;27;45535;-77
2023/01/19 11:19:59;;;;;;;;;17.67;16.33;;;;;3.64;66.41;98659.84;5088883;27;46194;-80
2023/01/19 11:22:29;;;;;;;;;21.67;18.67;;;;;3.66;66.96;98648.53;5084715;27;45985;-79
2023/01/19 11:25:03;;;;;;;;;20.00;17.00;;;;;3.66;65.34;98651.13;5095653;27;45464;-79
2023/01/19 11:27:31;;;;;;;;;19.00;16.00;;;;;3.72;66.56;98643.16;5103680;27;45486;-79
2023/01/19 11:30:06;;;;;;;;;20.67;18.33;;;;;3.79;64.59;98644.75;5095827;27;45548;-79
2023/01/19 11:32:35;;;;;;;;;18.67;17.67;;;;;3.76;64.79;98643.97;5091113;27;45634;-79
2023/01/19 11:35:21;;;;;;;;;11.67;7.00;;;;;3.76;65.25;98637.00;5111634;27;45538;-79
2023/01/19 11:37:46;;;;;;;;;19.33;18.33;;;;;3.86;65.12;98635.06;5110562;27;45514;-77
2023/01/19 11:40:15;;;;;;;;;19.33;18.00;;;;;3.98;65.58;98633.94;5092090;27;45443;-79
2023/01/19 11:42:43;;;;;;;;;23.00;19.00;;;;;4.05;65.15;98630.31;5091800;27;45463;-79
2023/01/19 11:45:18;;;;;;;;;24.00;17.33;;;;;4.13;66.05;98628.41;5095310;27;45538;-80
2023/01/19 11:47:44;;;;;;;;;19.00;19.00;;;;;4.11;64.84;98622.34;5095423;27;45376;-80
2023/01/19 11:50:27;;;;;;;;;17.00;15.00;;;;;4.08;64.37;98622.41;5112300;27;47190;-80